createdAt,value
2023-08-13T00:02:06.545Z,97451.63
2023-08-13T00:07:08.589Z,97449.81
2023-08-13T00:12:10.446Z,97455.50
2023-08-13T00:17:12.484Z,97445.78
2023-08-13T00:22:14.769Z,97450.84
2023-08-13T00:27:16.494Z,97449.91
2023-08-13T00:32:18.261Z,97456.78
2023-08-13T00:37:20.171Z,97452.72
2023-08-13T00:42:22.084Z,97454.00
2023-08-13T00:47:24.953Z,97447.88
2023-08-13T00:52:26.976Z,97446.22
2023-08-13T00:57:28.798Z,97449.78
2023-08-13T01:02:30.656Z,97444.03
2023-08-13T01:08:01.674Z,97446.78
2023-08-13T01:13:24.011Z,97438.44
2023-08-13T01:18:27.983Z,97447.97
2023-08-13T01:23:29.799Z,97447.47
2023-08-13T01:28:37.644Z,97443.31
2023-08-13T01:33:43.695Z,97442.84
2023-08-13T01:38:47.456Z,97444.94
2023-08-13T01:43:51.894Z,97442.47
2023-08-13T01:48:53.922Z,97438.09
2023-08-13T01:53:56.195Z,97444.13
2023-08-13T01:58:58.017Z,97436.03
2023-08-13T02:03:59.893Z,97444.66
2023-08-13T02:09:03.660Z,97433.56
2023-08-13T02:14:05.720Z,97435.50
2023-08-13T02:19:07.518Z,97435.72
2023-08-13T02:24:09.336Z,97442.53
2023-08-13T02:29:11.627Z,97433.22
2023-08-13T02:34:13.625Z,97428.75
2023-08-13T02:39:16.317Z,97432.50
2023-08-13T02:44:18.745Z,97437.72
2023-08-13T02:49:20.437Z,97437.16
2023-08-13T02:54:22.917Z,97443.66
2023-08-13T02:59:26.317Z,97445.50
2023-08-13T03:04:28.317Z,97447.84
2023-08-13T03:09:30.031Z,97448.66
2023-08-13T03:14:31.983Z,97442.47
2023-08-13T03:19:34.269Z,97435.97
2023-08-13T03:24:36.188Z,97437.13
2023-08-13T03:29:38.836Z,97441.09
2023-08-13T03:34:42.862Z,97441.50
2023-08-13T03:39:45.265Z,97434.75
2023-08-13T03:44:47.003Z,97447.91
2023-08-13T03:49:50.171Z,97449.72
2023-08-13T03:54:52.013Z,97456.78
2023-08-13T03:59:54.050Z,97449.34
2023-08-13T04:04:56.093Z,97450.19
2023-08-13T04:09:58.414Z,97453.13
2023-08-13T04:15:03.869Z,97448.91
2023-08-13T04:20:06.723Z,97453.81
2023-08-13T04:25:09.596Z,97452.97
2023-08-13T04:30:11.915Z,97439.84
2023-08-13T04:35:13.841Z,97439.44
2023-08-13T04:40:15.916Z,97437.97
2023-08-13T04:45:18.058Z,97440.56
2023-08-13T04:50:20.557Z,97442.03
2023-08-13T04:55:22.547Z,97426.31
2023-08-13T05:00:24.640Z,97418.75
2023-08-13T05:05:27.828Z,97436.84
2023-08-13T05:10:30.318Z,97438.47
2023-08-13T05:15:32.208Z,97444.00
2023-08-13T05:20:34.481Z,97428.03
2023-08-13T05:25:39.778Z,97429.31
2023-08-13T05:30:43.913Z,97443.59
2023-08-13T05:35:46.422Z,97442.88
2023-08-13T05:40:51.186Z,97454.94
2023-08-13T05:45:53.080Z,97440.63
2023-08-13T05:50:55.581Z,97430.16
2023-08-13T05:56:03.319Z,97445.91
2023-08-13T06:01:05.123Z,97456.53
2023-08-13T06:06:07.241Z,97444.44
2023-08-13T06:11:09.022Z,97437.72
2023-08-13T06:16:12.930Z,97435.28
2023-08-13T06:21:14.963Z,97442.31
2023-08-13T06:26:16.936Z,97451.28
2023-08-13T06:31:36.937Z,97445.84
2023-08-13T06:36:42.963Z,97441.41
2023-08-13T06:41:44.853Z,97446.75
2023-08-13T06:46:48.616Z,97471.91
2023-08-13T06:51:50.551Z,97463.25
2023-08-13T06:56:52.610Z,97459.38
2023-08-13T07:01:55.187Z,97451.69
2023-08-13T07:06:57.400Z,97449.72
2023-08-13T07:11:59.242Z,97438.09
2023-08-13T07:17:01.235Z,97441.78
2023-08-13T07:22:03.213Z,97432.59
2023-08-13T07:27:05.602Z,97433.66
2023-08-13T07:32:08.021Z,97429.47
2023-08-13T07:37:10.205Z,97424.38
2023-08-13T07:42:12.282Z,97414.81
2023-08-13T07:47:15.106Z,97418.44
2023-08-13T07:52:17.257Z,97419.03
2023-08-13T07:57:19.457Z,97428.94
2023-08-13T08:02:21.135Z,97434.88
2023-08-13T08:07:23.334Z,97441.66
2023-08-13T08:12:25.519Z,97454.47
2023-08-13T08:17:29.284Z,97462.63
2023-08-13T08:22:31.549Z,97456.13
2023-08-13T08:27:34.042Z,97466.84
2023-08-13T08:32:36.839Z,97456.13
2023-08-13T08:37:39.009Z,97447.53
2023-08-13T08:42:42.933Z,97427.25
2023-08-13T08:47:47.902Z,97399.28
2023-08-13T08:52:50.539Z,97411.16
2023-08-13T08:57:56.744Z,97413.50
2023-08-13T09:02:58.941Z,97423.28
2023-08-13T09:08:01.131Z,97423.25
2023-08-13T09:13:02.942Z,97413.69
2023-08-13T09:18:06.369Z,97406.53
2023-08-13T09:23:08.167Z,97402.09
2023-08-13T09:28:10.005Z,97401.00
2023-08-13T09:33:15.519Z,97398.63
2023-08-13T09:38:17.537Z,97394.47
2023-08-13T09:43:25.638Z,97392.50
2023-08-13T09:48:28.611Z,97383.81
2023-08-13T09:53:34.091Z,97388.28
2023-08-13T09:58:37.118Z,97370.81
2023-08-13T10:03:40.663Z,97366.75
2023-08-13T10:08:43.551Z,97372.75
2023-08-13T10:13:46.425Z,97366.03
2023-08-13T10:18:48.172Z,97374.88
2023-08-13T10:23:50.034Z,97368.91
2023-08-13T10:28:55.460Z,97367.88
2023-08-13T10:34:12.983Z,97368.72
2023-08-13T10:39:30.491Z,97362.34
2023-08-13T10:44:41.516Z,97352.00
2023-08-13T10:49:43.370Z,97358.50
2023-08-13T10:54:45.138Z,97344.28
2023-08-13T10:59:47.141Z,97339.41
2023-08-13T11:04:49.777Z,97331.34
2023-08-13T11:09:51.920Z,97330.91
2023-08-13T11:14:54.183Z,97321.66
2023-08-13T11:19:58.026Z,97314.19
2023-08-13T11:24:59.849Z,97321.44
2023-08-13T11:30:02.730Z,97325.56
2023-08-13T11:35:13.082Z,97325.69
2023-08-13T11:40:16.867Z,97324.94
2023-08-13T11:45:18.696Z,97328.22
2023-08-13T11:50:26.280Z,97318.69
2023-08-13T11:55:28.304Z,97309.66
2023-08-13T12:00:34.760Z,97309.66
2023-08-13T12:05:38.098Z,97304.97
2023-08-13T12:10:41.345Z,97295.31
2023-08-13T12:15:43.704Z,97284.06
2023-08-13T12:20:45.946Z,97277.38
2023-08-13T12:25:48.338Z,97275.88
2023-08-13T12:30:50.222Z,97276.38
2023-08-13T12:35:52.013Z,97270.50
2023-08-13T12:40:53.724Z,97269.53
2023-08-13T12:45:55.829Z,97264.94
2023-08-13T12:50:57.660Z,97261.22
2023-08-13T12:56:06.544Z,97242.25
2023-08-13T13:01:09.251Z,97249.66
2023-08-13T13:06:11.303Z,97248.19
2023-08-13T13:11:13.046Z,97256.75
2023-08-13T13:16:14.792Z,97243.09
2023-08-13T13:21:16.750Z,97234.38
2023-08-13T13:26:18.966Z,97246.78
2023-08-13T13:31:20.817Z,97237.31
2023-08-13T13:36:23.194Z,97228.63
2023-08-13T13:41:25.299Z,97221.59
2023-08-13T13:46:27.617Z,97216.69
2023-08-13T13:51:29.460Z,97198.59
2023-08-13T13:56:31.282Z,97203.06
2023-08-13T14:01:33.143Z,97195.22
2023-08-13T14:06:34.946Z,97195.81
2023-08-13T14:11:39.352Z,97206.00
2023-08-13T14:16:42.354Z,97196.91
2023-08-13T14:21:45.754Z,97187.81
2023-08-13T14:26:50.502Z,97188.47
2023-08-13T14:31:52.440Z,97181.53
2023-08-13T14:36:55.794Z,97189.00
2023-08-13T14:41:58.994Z,97189.47
2023-08-13T14:47:00.860Z,97201.09
2023-08-13T14:52:03.068Z,97209.59
2023-08-13T14:57:05.101Z,97214.19
2023-08-13T15:02:07.389Z,97221.84
2023-08-13T15:07:09.101Z,97218.44
2023-08-13T15:12:10.810Z,97225.44
2023-08-13T15:17:12.565Z,97217.22
2023-08-13T15:22:14.639Z,97225.91
2023-08-13T15:27:16.766Z,97209.66
2023-08-13T15:32:18.765Z,97202.28
2023-08-13T15:37:20.681Z,97191.66
2023-08-13T15:42:22.432Z,97194.88
2023-08-13T15:47:24.407Z,97180.91
2023-08-13T15:52:26.678Z,97167.94
2023-08-13T15:57:28.677Z,97179.63
2023-08-13T16:02:30.599Z,97182.06
2023-08-13T16:07:32.282Z,97172.44
2023-08-13T16:12:34.001Z,97162.03
2023-08-13T16:17:37.243Z,97157.97
2023-08-13T16:22:41.109Z,97160.53
2023-08-13T16:27:42.928Z,97155.56
2023-08-13T16:32:44.885Z,97156.97
2023-08-13T16:37:46.697Z,97166.94
2023-08-13T16:43:04.337Z,97146.78
2023-08-13T16:48:08.645Z,97155.56
2023-08-13T16:53:10.411Z,97146.47
2023-08-13T16:58:12.318Z,97150.88
2023-08-13T17:03:14.194Z,97155.47
2023-08-13T17:08:16.000Z,97166.25
2023-08-13T17:13:17.895Z,97159.31
2023-08-13T17:18:19.608Z,97168.94
2023-08-13T17:23:23.121Z,97172.06
2023-08-13T17:28:24.938Z,97165.75
2023-08-13T17:33:27.016Z,97164.44
2023-08-13T17:38:29.022Z,97170.78
2023-08-13T17:43:30.824Z,97169.31
2023-08-13T17:48:32.588Z,97152.94
2023-08-13T17:53:34.362Z,97152.94
2023-08-13T17:58:50.996Z,97132.47
2023-08-13T18:03:57.861Z,97138.38
2023-08-13T18:09:05.546Z,97142.81
2023-08-13T18:14:07.822Z,97149.47
2023-08-13T18:19:09.532Z,97164.22
2023-08-13T18:24:11.500Z,97159.06
2023-08-13T18:29:13.669Z,97148.53
2023-08-13T18:34:15.451Z,97167.16
2023-08-13T18:39:17.447Z,97168.69
2023-08-13T18:44:19.927Z,97178.19
2023-08-13T18:49:21.629Z,97176.44
2023-08-13T18:54:23.441Z,97177.44
2023-08-13T18:59:25.430Z,97189.88
2023-08-13T19:04:27.183Z,97220.28
2023-08-13T19:09:32.714Z,97212.25
2023-08-13T19:14:34.923Z,97210.94
2023-08-13T19:19:36.748Z,97224.50
2023-08-13T19:24:38.466Z,97219.59
2023-08-13T19:29:41.073Z,97220.41
2023-08-13T19:34:42.909Z,97237.53
2023-08-13T19:39:44.636Z,97248.13
2023-08-13T19:44:46.458Z,97254.53
2023-08-13T19:49:48.226Z,97251.53
2023-08-13T19:54:50.234Z,97271.81
2023-08-13T19:59:52.261Z,97274.97
2023-08-13T20:04:53.984Z,97278.50
2023-08-13T20:09:56.082Z,97269.84
2023-08-13T20:14:58.634Z,97254.44
2023-08-13T20:20:00.423Z,97265.63
2023-08-13T20:25:02.178Z,97252.63
2023-08-13T20:30:04.403Z,97250.28
2023-08-13T20:35:06.346Z,97242.81
2023-08-13T20:40:10.622Z,97226.41
2023-08-13T20:45:12.366Z,97231.97
2023-08-13T20:50:17.741Z,97227.09
2023-08-13T20:55:21.622Z,97212.50
2023-08-13T21:00:23.773Z,97222.06
2023-08-13T21:05:26.611Z,97223.25
2023-08-13T21:10:28.700Z,97233.72
2023-08-13T21:15:30.543Z,97256.88
2023-08-13T21:20:32.607Z,97264.09
2023-08-13T21:25:34.634Z,97270.53
2023-08-13T21:30:36.450Z,97272.44
2023-08-13T21:35:38.698Z,97265.97
2023-08-13T21:40:40.458Z,97265.84
2023-08-13T21:45:42.247Z,97278.81
2023-08-13T21:50:45.088Z,97294.31
2023-08-13T21:55:46.898Z,97306.78
2023-08-13T22:00:48.809Z,97322.38
2023-08-13T22:05:50.585Z,97338.34
2023-08-13T22:10:52.342Z,97351.28
2023-08-13T22:15:54.107Z,97359.56
2023-08-13T22:20:56.153Z,97358.88
2023-08-13T22:26:08.592Z,97345.88
2023-08-13T22:31:19.529Z,97361.72
2023-08-13T22:36:21.366Z,97353.00
2023-08-13T22:41:25.074Z,97361.25
2023-08-13T22:46:28.072Z,97357.53
2023-08-13T22:51:30.488Z,97358.88
2023-08-13T22:56:32.654Z,97339.19
2023-08-13T23:01:34.871Z,97333.00
2023-08-13T23:06:36.541Z,97313.72
2023-08-13T23:11:38.637Z,97307.44
2023-08-13T23:16:40.350Z,97305.22
2023-08-13T23:21:43.228Z,97300.53
2023-08-13T23:26:44.950Z,97306.09
2023-08-13T23:31:47.535Z,97291.19
2023-08-13T23:36:49.462Z,97290.84
2023-08-13T23:41:52.002Z,97282.44
2023-08-13T23:46:58.190Z,97279.09
2023-08-13T23:51:59.952Z,97275.88
2023-08-13T23:57:02.523Z,97282.25
